Sunday, July 22, 2018, 2:54 AM EDT
Back to Local

KCRW, Yeager Airport

Location: Charleston, WV, United States Lat: 38.367
Local Time: 2:54 AM EDT ( 6:54 GMT) Lon: -81.6
Time Zone: US/Eastern Elev: 980 ft

Show me the last for .
Show Decoded

2018-07-22 02:06 METAR KCRW 220606Z 00000KT 10SM FEW000 SCT090 19/19 A2974 RMK AO2 FG FEW000
                 T01940194 $ =
2018-07-22 02:04 METAR KCRW 220604Z 00000KT 1SM VV001 20/19 A2974 RMK AO2 T02000194 RVRNO $ =
2018-07-22 01:54 METAR KCRW 220554Z 16004KT 10SM SCT090 20/19 A2974 RMK AO2 SLP060 T02000194
                 10239 20200 58012 $ =
2018-07-22 00:54 METAR KCRW 220454Z 00000KT 10SM BKN095 21/20 A2976 RMK AO2 SLP066 T02060200
                 402940178 $ =
2018-07-21 23:54 METAR KCRW 220354Z 00000KT 10SM SCT120 21/19 A2976 RMK AO2 SLP068 T02060194 $ =
2018-07-21 22:54 METAR KCRW 220254Z 12003KT 10SM SCT050 21/19 A2977 RMK AO2 SLP073 CB DSNT NE-SE
                 T02110194 53008 $ =
2018-07-21 21:54 METAR KCRW 220154Z 24004KT 10SM SCT080 SCT110 23/18 A2976 RMK AO2 TSE35 SLP069
                 TS MOVD E CB DSNT E-S T02280183 $ =
2018-07-21 21:37 METAR KCRW 220137Z 27004KT 10SM SCT080 SCT110 23/18 A2975 RMK AO2 LTG DSNT SE
                 TSE35 TS MOVD E CB DSNT E-S T02330183 =
2018-07-21 20:54 METAR KCRW 220054Z 28006KT 10SM TS SCT055CB SCT110 23/19 A2976 RMK AO2 SLP069
                 OCNNL LTGIC E TS E MOVE E T02330194 =
2018-07-21 19:54 METAR KCRW 212354Z 00000KT 10SM TS FEW050CB SCT120 24/21 A2975 RMK AO2 LTG DSNT
                 S TSB32 SLP066 OCNL LTGIC SE AND SW TS SE AND W MOV E CB DSNT ALQDS 60000
                 T02390206 10294 20233 58000 =
2018-07-21 19:33 METAR KCRW 212333Z COR 00000KT 10SM TS FEW055CB FEW120 24/20 A2974 =
2018-07-21 18:54 METAR KCRW 212254Z 29003KT 10SM SCT045TCU SCT080 26/18 A2975 RMK AO2 LTG DSNT S
                 AND NW RAB36E49 SLP066 TCU ALQDS P0000 T02560183 =
2018-07-21 17:54 METAR KCRW 212154Z 00000KT 10SM SCT045 SCT100 28/18 A2975 RMK AO2 SLP063
                 T02830183 =
2018-07-21 16:54 METAR KCRW 212054Z 25003KT 10SM SCT040 SCT080 28/18 A2975 RMK AO2 SLP064
                 T02830178 56017 =
2018-07-21 15:54 METAR KCRW 211954Z 27005KT 10SM SCT043 SCT080 29/19 A2976 RMK AO2 SLP068
                 T02890189 =
2018-07-21 14:54 METAR KCRW 211854Z 24007KT 10SM SCT049 SCT080 BKN110 28/18 A2978 RMK AO2 SLP074
                 T02830178 =
2018-07-21 13:54 METAR KCRW 211754Z 23008KT 10SM SCT045 SCT080 BKN120 28/17 A2980 RMK AO2 SLP082
                 T02780167 10278 20178 58019 =
2018-07-21 12:54 METAR KCRW 211654Z 20009KT 10SM SCT035 SCT090 BKN110 27/16 A2982 RMK AO2 SLP089
                 TCU DSNT ALQDS T02720161 =
2018-07-21 11:54 METAR KCRW 211554Z COR 18008KT 9SM FEW035 SCT090 BKN110 26/18 A2985 RMK AO2
                 SLP098 T02560178 =
2018-07-21 10:54 METAR KCRW 211454Z 19007KT 10SM SCT090 BKN110 BKN200 24/18 A2986 RMK AO2 SLP103
                 T02440178 51006 =
2018-07-21 09:54 METAR KCRW 211354Z 00000KT 10SM FEW080 BKN110 BKN200 23/18 A2986 RMK AO2 SLP103
                 T02280178 =
2018-07-21 08:54 METAR KCRW 211254Z 00000KT 10SM FEW055 SCT085 BKN110 19/18 A2985 RMK AO2 SLP103
                 T01890178 =
2018-07-21 07:54 METAR KCRW 211154Z COR 00000KT 10SM FEW085 BKN110 18/17 A2984 RMK AO2 SLP099
                 70128 T01830172 10189 20178 53001 =
2018-07-21 06:54 METAR KCRW 211054Z 03003KT 10SM SCT110 18/17 A2983 RMK AO2 SLP092 T01830167 =
2018-07-21 05:54 METAR KCRW 210954Z 14004KT 10SM SCT110 18/16 A2982 RMK AO2 SLP090 T01830161 =
2018-07-21 04:54 METAR KCRW 210854Z 14004KT 10SM FEW110 SCT180 18/17 A2984 RMK AO2 SLP095
                 T01830167 56024 =
2018-07-21 03:54 METAR KCRW 210754Z 16006KT 10SM BKN110 18/17 A2987 RMK AO2 SLP106 T01830167 =

Support USWX by starting your Amazon purchase here.